sensor_id;sensor_type;location;lat;lon;timestamp;P1;P4;P2;P0;N10;N4;N25;N1;N05;TS
78695;SPS30;68030;51.980;5.646;2023-12-22T00:00:58;6.1;5.4;3.9;2.0;;;;4.0;40.0;
78695;SPS30;68030;51.980;5.646;2023-12-22T00:03:27;8.1;7.2;5.2;2.7;;;;4.0;35.0;
78695;SPS30;68030;51.980;5.646;2023-12-22T00:05:56;7.1;6.3;4.6;2.3;;;;4.0;33.0;
78695;SPS30;68030;51.980;5.646;2023-12-22T00:08:24;9.2;8.1;5.8;2.9;;;;4.0;31.0;
78695;SPS30;68030;51.980;5.646;2023-12-22T00:10:53;7.6;6.7;4.8;2.3;;;;3.0;29.0;
78695;SPS30;68030;51.980;5.646;2023-12-22T00:13:21;8.4;7.4;5.4;2.7;;;;3.0;28.0;
78695;SPS30;68030;51.980;5.646;2023-12-22T00:15:50;7.2;6.3;4.6;2.3;;;;3.0;26.0;
78695;SPS30;68030;51.980;5.646;2023-12-22T00:18:18;6.3;5.5;4.0;2.0;;;;3.0;26.0;
78695;SPS30;68030;51.980;5.646;2023-12-22T00:20:46;6.3;5.6;4.1;2.1;;;;3.0;25.0;
78695;SPS30;68030;51.980;5.646;2023-12-22T00:23:15;6.0;5.3;3.8;2.0;;;;3.0;25.0;
78695;SPS30;68030;51.980;5.646;2023-12-22T00:25:43;6.2;5.5;4.0;2.0;;;;3.0;25.0;
78695;SPS30;68030;51.980;5.646;2023-12-22T00:28:12;7.0;6.2;4.5;2.3;;;;3.0;25.0;
78695;SPS30;68030;51.980;5.646;2023-12-22T00:30:42;6.7;5.9;4.4;2.4;;;;3.0;24.0;
78695;SPS30;68030;51.980;5.646;2023-12-22T00:33:11;5.8;5.2;3.8;2.1;;;;3.0;23.0;
78695;SPS30;68030;51.980;5.646;2023-12-22T00:35:39;3.9;3.5;2.6;1.4;;;;3.0;20.0;
78695;SPS30;68030;51.980;5.646;2023-12-22T00:38:08;2.9;2.6;1.9;1.0;;;;3.0;16.0;
78695;SPS30;68030;51.980;5.646;2023-12-22T00:40:36;3.1;2.7;2.0;1.0;;;;3.0;14.0;
78695;SPS30;68030;51.980;5.646;2023-12-22T00:43:05;3.6;3.2;2.3;1.2;;;;3.0;13.0;
78695;SPS30;68030;51.980;5.646;2023-12-22T00:45:33;2.5;2.2;1.6;0.8;;;;4.0;11.0;
78695;SPS30;68030;51.980;5.646;2023-12-22T00:48:01;3.5;3.1;2.2;1.1;;;;4.0;10.0;
78695;SPS30;68030;51.980;5.646;2023-12-22T00:50:30;2.8;2.4;1.8;0.9;;;;4.0;10.0;
78695;SPS30;68030;51.980;5.646;2023-12-22T00:52:59;2.9;2.6;1.9;1.0;;;;4.0;9.0;
78695;SPS30;68030;51.980;5.646;2023-12-22T00:55:28;3.0;2.7;2.0;1.1;;;;4.0;9.0;
78695;SPS30;68030;51.980;5.646;2023-12-22T00:57:56;2.8;2.5;1.8;1.0;;;;5.0;9.0;
78695;SPS30;68030;51.980;5.646;2023-12-22T01:00:24;3.3;3.0;2.2;1.2;;;;5.0;9.0;
78695;SPS30;68030;51.980;5.646;2023-12-22T01:02:53;4.8;4.3;3.2;1.7;;;;5.0;9.0;
78695;SPS30;68030;51.980;5.646;2023-12-22T01:05:21;4.6;4.1;3.1;1.7;;;;5.0;9.0;
78695;SPS30;68030;51.980;5.646;2023-12-22T01:07:50;4.5;4.1;3.1;1.8;;;;5.0;10.0;
78695;SPS30;68030;51.980;5.646;2023-12-22T01:10:18;4.5;4.0;3.1;1.9;;;;5.0;10.0;
78695;SPS30;68030;51.980;5.646;2023-12-22T01:12:48;3.0;2.7;2.1;1.3;;;;5.0;10.0;
78695;SPS30;68030;51.980;5.646;2023-12-22T01:15:17;3.5;3.1;2.4;1.4;;;;5.0;11.0;
78695;SPS30;68030;51.980;5.646;2023-12-22T01:17:45;4.1;3.6;2.8;1.6;;;;5.0;11.0;
78695;SPS30;68030;51.980;5.646;2023-12-22T01:20:14;2.6;2.3;1.7;1.0;;;;5.0;11.0;
78695;SPS30;68030;51.980;5.646;2023-12-22T01:22:42;3.7;3.3;2.4;1.3;;;;5.0;12.0;
78695;SPS30;68030;51.980;5.646;2023-12-22T01:25:11;3.9;3.4;2.5;1.4;;;;5.0;12.0;
78695;SPS30;68030;51.980;5.646;2023-12-22T01:27:41;3.9;3.5;2.5;1.4;;;;5.0;13.0;
78695;SPS30;68030;51.980;5.646;2023-12-22T01:30:10;4.3;3.8;2.8;1.5;;;;5.0;13.0;
78695;SPS30;68030;51.980;5.646;2023-12-22T01:32:38;4.4;3.9;2.9;1.5;;;;5.0;14.0;
78695;SPS30;68030;51.980;5.646;2023-12-22T01:35:07;5.4;4.8;3.5;1.9;;;;5.0;14.0;
78695;SPS30;68030;51.980;5.646;2023-12-22T01:37:37;4.9;4.4;3.2;1.7;;;;5.0;15.0;
78695;SPS30;68030;51.980;5.646;2023-12-22T01:40:07;4.0;3.5;2.6;1.4;;;;5.0;15.0;
78695;SPS30;68030;51.980;5.646;2023-12-22T01:42:36;4.4;3.9;2.9;1.5;;;;5.0;16.0;
78695;SPS30;68030;51.980;5.646;2023-12-22T01:45:07;6.5;5.8;4.3;2.3;;;;5.0;17.0;
78695;SPS30;68030;51.980;5.646;2023-12-22T01:47:37;4.5;4.0;3.0;1.6;;;;5.0;18.0;
78695;SPS30;68030;51.980;5.646;2023-12-22T01:50:07;4.4;3.9;2.9;1.5;;;;5.0;18.0;
78695;SPS30;68030;51.980;5.646;2023-12-22T01:52:38;5.9;5.2;3.8;2.1;;;;5.0;19.0;
78695;SPS30;68030;51.980;5.646;2023-12-22T01:55:09;5.2;4.6;3.4;1.8;;;;5.0;20.0;
78695;SPS30;68030;51.980;5.646;2023-12-22T01:57:41;5.7;5.0;3.6;1.9;;;;4.0;21.0;
78695;SPS30;68030;51.980;5.646;2023-12-22T02:00:12;5.6;4.9;3.6;1.8;;;;4.0;21.0;
78695;SPS30;68030;51.980;5.646;2023-12-22T02:02:42;4.1;3.7;2.7;1.4;;;;4.0;22.0;
78695;SPS30;68030;51.980;5.646;2023-12-22T02:05:11;5.7;5.0;3.6;1.9;;;;4.0;23.0;
78695;SPS30;68030;51.980;5.646;2023-12-22T02:07:40;3.8;3.4;2.5;1.3;;;;4.0;24.0;
78695;SPS30;68030;51.980;5.646;2023-12-22T02:10:10;4.8;4.2;3.1;1.6;;;;4.0;24.0;
78695;SPS30;68030;51.980;5.646;2023-12-22T02:12:39;5.0;4.4;3.2;1.7;;;;4.0;25.0;
78695;SPS30;68030;51.980;5.646;2023-12-22T02:15:08;6.2;5.5;4.0;2.1;;;;4.0;25.0;
78695;SPS30;68030;51.980;5.646;2023-12-22T02:17:39;5.6;5.0;3.7;2.0;;;;4.0;25.0;
78695;SPS30;68030;51.980;5.646;2023-12-22T02:20:12;5.2;4.6;3.4;1.9;;;;4.0;25.0;
78695;SPS30;68030;51.980;5.646;2023-12-22T02:22:42;5.8;5.2;3.8;2.0;;;;4.0;25.0;
78695;SPS30;68030;51.980;5.646;2023-12-22T02:25:12;5.3;4.7;3.4;1.8;;;;4.0;24.0;
78695;SPS30;68030;51.980;5.646;2023-12-22T02:27:42;6.2;5.5;4.1;2.2;;;;4.0;24.0;
78695;SPS30;68030;51.980;5.646;2023-12-22T02:30:18;5.2;4.7;3.5;1.9;;;;4.0;23.0;
78695;SPS30;68030;51.980;5.646;2023-12-22T02:32:56;6.6;5.9;4.3;2.2;;;;4.0;23.0;
78695;SPS30;68030;51.980;5.646;2023-12-22T02:35:30;6.5;5.7;4.2;2.2;;;;4.0;23.0;
78695;SPS30;68030;51.980;5.646;2023-12-22T02:38:04;6.7;5.9;4.2;2.1;;;;4.0;23.0;
78695;SPS30;68030;51.980;5.646;2023-12-22T02:43:05;5.9;5.2;3.8;2.0;;;;4.0;25.0;
78695;SPS30;68030;51.980;5.646;2023-12-22T02:45:35;7.9;6.9;5.0;2.5;;;;4.0;25.0;
78695;SPS30;68030;51.980;5.646;2023-12-22T02:48:05;8.4;7.4;5.4;2.7;;;;4.0;26.0;
78695;SPS30;68030;51.980;5.646;2023-12-22T02:50:33;7.3;6.4;4.6;2.3;;;;3.0;27.0;
78695;SPS30;68030;51.980;5.646;2023-12-22T02:53:03;8.4;7.4;5.3;2.6;;;;3.0;28.0;
78695;SPS30;68030;51.980;5.646;2023-12-22T02:55:31;9.1;8.0;5.8;2.9;;;;3.0;29.0;
78695;SPS30;68030;51.980;5.646;2023-12-22T02:58:00;7.2;6.4;4.6;2.3;;;;3.0;30.0;
78695;SPS30;68030;51.980;5.646;2023-12-22T03:00:28;8.8;7.8;5.6;2.8;;;;3.0;31.0;
78695;SPS30;68030;51.980;5.646;2023-12-22T03:02:57;8.9;7.8;5.7;2.9;;;;3.0;31.0;
78695;SPS30;68030;51.980;5.646;2023-12-22T03:05:25;10.6;9.4;6.8;3.5;;;;3.0;31.0;
78695;SPS30;68030;51.980;5.646;2023-12-22T03:07:54;8.7;7.7;5.5;2.8;;;;3.0;31.0;
78695;SPS30;68030;51.980;5.646;2023-12-22T03:10:23;11.1;9.7;6.9;3.4;;;;3.0;31.0;
78695;SPS30;68030;51.980;5.646;2023-12-22T03:12:51;10.7;9.4;6.7;3.2;;;;3.0;30.0;
78695;SPS30;68030;51.980;5.646;2023-12-22T03:15:20;11.8;10.3;7.2;3.3;;;;3.0;30.0;
78695;SPS30;68030;51.980;5.646;2023-12-22T03:17:48;11.3;9.9;7.0;3.2;;;;3.0;30.0;
78695;SPS30;68030;51.980;5.646;2023-12-22T03:20:17;11.9;10.5;7.5;3.7;;;;3.0;30.0;
78695;SPS30;68030;51.980;5.646;2023-12-22T03:22:45;9.7;8.5;6.1;3.0;;;;3.0;30.0;
78695;SPS30;68030;51.980;5.646;2023-12-22T03:25:13;10.8;9.5;6.8;3.4;;;;3.0;30.0;
78695;SPS30;68030;51.980;5.646;2023-12-22T03:27:42;10.5;9.3;6.8;3.5;;;;3.0;29.0;
78695;SPS30;68030;51.980;5.646;2023-12-22T03:30:11;10.6;9.3;6.7;3.3;;;;3.0;28.0;
78695;SPS30;68030;51.980;5.646;2023-12-22T03:32:40;10.8;9.5;6.7;3.2;;;;3.0;28.0;
78695;SPS30;68030;51.980;5.646;2023-12-22T03:35:09;9.0;7.9;5.7;2.8;;;;3.0;28.0;
78695;SPS30;68030;51.980;5.646;2023-12-22T03:37:37;9.7;8.6;6.1;3.0;;;;3.0;28.0;
78695;SPS30;68030;51.980;5.646;2023-12-22T03:40:07;10.5;9.3;6.7;3.3;;;;3.0;28.0;
78695;SPS30;68030;51.980;5.646;2023-12-22T03:42:36;9.4;8.3;6.0;3.0;;;;3.0;29.0;
78695;SPS30;68030;51.980;5.646;2023-12-22T03:45:05;9.9;8.7;6.3;3.3;;;;3.0;30.0;
78695;SPS30;68030;51.980;5.646;2023-12-22T03:47:34;9.6;8.6;6.3;3.4;;;;3.0;31.0;
78695;SPS30;68030;51.980;5.646;2023-12-22T03:50:03;8.7;7.7;5.7;3.0;;;;3.0;31.0;
78695;SPS30;68030;51.980;5.646;2023-12-22T03:52:33;8.8;7.8;5.7;3.0;;;;3.0;32.0;
78695;SPS30;68030;51.980;5.646;2023-12-22T03:55:02;9.3;8.2;5.9;3.0;;;;3.0;34.0;
78695;SPS30;68030;51.980;5.646;2023-12-22T03:57:31;9.2;8.2;5.9;2.9;;;;3.0;35.0;
78695;SPS30;68030;51.980;5.646;2023-12-22T04:00:00;9.0;7.9;5.7;2.8;;;;3.0;42.0;
78695;SPS30;68030;51.980;5.646;2023-12-22T04:02:28;5.7;5.1;3.7;2.0;;;;3.0;42.0;
78695;SPS30;68030;51.980;5.646;2023-12-22T04:04:56;3.4;3.1;2.3;1.3;;;;3.0;41.0;
78695;SPS30;68030;51.980;5.646;2023-12-22T04:07:25;3.9;3.5;2.6;1.4;;;;3.0;39.0;
78695;SPS30;68030;51.980;5.646;2023-12-22T04:09:53;3.4;3.0;2.2;1.2;;;;3.0;38.0;
78695;SPS30;68030;51.980;5.646;2023-12-22T04:12:21;3.9;3.4;2.5;1.3;;;;3.0;36.0;
78695;SPS30;68030;51.980;5.646;2023-12-22T04:14:50;3.2;2.9;2.1;1.1;;;;3.0;34.0;
78695;SPS30;68030;51.980;5.646;2023-12-22T04:17:19;3.9;3.4;2.5;1.4;;;;3.0;32.0;
78695;SPS30;68030;51.980;5.646;2023-12-22T04:19:48;3.4;3.0;2.2;1.2;;;;3.0;31.0;
78695;SPS30;68030;51.980;5.646;2023-12-22T04:22:16;3.5;3.1;2.3;1.2;;;;3.0;31.0;
78695;SPS30;68030;51.980;5.646;2023-12-22T04:24:45;3.4;3.0;2.2;1.2;;;;3.0;30.0;
78695;SPS30;68030;51.980;5.646;2023-12-22T04:27:13;3.8;3.4;2.5;1.3;;;;3.0;29.0;
78695;SPS30;68030;51.980;5.646;2023-12-22T04:29:43;3.1;2.7;2.0;1.0;;;;3.0;28.0;
78695;SPS30;68030;51.980;5.646;2023-12-22T04:32:12;4.5;4.0;3.0;1.6;;;;3.0;28.0;
78695;SPS30;68030;51.980;5.646;2023-12-22T04:34:40;3.8;3.4;2.5;1.4;;;;3.0;29.0;
78695;SPS30;68030;51.980;5.646;2023-12-22T04:37:09;3.8;3.4;2.6;1.5;;;;3.0;37.0;
78695;SPS30;68030;51.980;5.646;2023-12-22T04:39:37;4.7;4.3;3.4;2.1;;;;3.0;39.0;
78695;SPS30;68030;51.980;5.646;2023-12-22T04:42:06;3.2;2.9;2.3;1.6;;;;3.0;42.0;
78695;SPS30;68030;51.980;5.646;2023-12-22T04:44:34;4.0;3.6;2.9;1.9;;;;3.0;42.0;
78695;SPS30;68030;51.980;5.646;2023-12-22T04:47:03;3.2;2.9;2.3;1.4;;;;3.0;41.0;
78695;SPS30;68030;51.980;5.646;2023-12-22T04:49:31;4.4;4.0;3.1;1.9;;;;3.0;40.0;
78695;SPS30;68030;51.980;5.646;2023-12-22T04:52:00;4.5;4.0;3.0;1.7;;;;3.0;40.0;
78695;SPS30;68030;51.980;5.646;2023-12-22T04:54:28;3.9;3.4;2.5;1.4;;;;3.0;40.0;
78695;SPS30;68030;51.980;5.646;2023-12-22T04:56:57;4.3;3.8;2.8;1.5;;;;3.0;40.0;
78695;SPS30;68030;51.980;5.646;2023-12-22T04:59:25;4.9;4.3;3.2;1.7;;;;3.0;40.0;
78695;SPS30;68030;51.980;5.646;2023-12-22T05:01:54;6.6;5.9;4.3;2.3;;;;3.0;41.0;
78695;SPS30;68030;51.980;5.646;2023-12-22T05:04:22;5.5;4.9;3.7;2.1;;;;3.0;42.0;
78695;SPS30;68030;51.980;5.646;2023-12-22T05:06:53;4.4;4.0;2.9;1.6;;;;3.0;43.0;
78695;SPS30;68030;51.980;5.646;2023-12-22T05:09:21;6.3;5.6;4.2;2.3;;;;3.0;45.0;
78695;SPS30;68030;51.980;5.646;2023-12-22T05:11:51;7.9;7.0;5.1;2.6;;;;3.0;47.0;
78695;SPS30;68030;51.980;5.646;2023-12-22T05:14:19;8.5;7.5;5.4;2.7;;;;2.0;47.0;
78695;SPS30;68030;51.980;5.646;2023-12-22T05:16:48;10.6;9.3;6.6;3.1;;;;2.0;49.0;
78695;SPS30;68030;51.980;5.646;2023-12-22T05:19:21;11.1;9.8;6.9;3.3;;;;2.0;60.0;
78695;SPS30;68030;51.980;5.646;2023-12-22T05:21:50;11.3;9.9;7.1;3.4;;;;2.0;59.0;
78695;SPS30;68030;51.980;5.646;2023-12-22T05:24:22;9.6;8.5;6.0;2.9;;;;2.0;58.0;
78695;SPS30;68030;51.980;5.646;2023-12-22T05:26:51;9.0;7.9;5.6;2.7;;;;2.0;57.0;
78695;SPS30;68030;51.980;5.646;2023-12-22T05:29:20;10.4;9.1;6.4;3.0;;;;2.0;56.0;
78695;SPS30;68030;51.980;5.646;2023-12-22T05:31:49;10.3;9.1;6.5;3.2;;;;2.0;56.0;
78695;SPS30;68030;51.980;5.646;2023-12-22T05:34:18;9.7;8.6;6.2;3.1;;;;2.0;57.0;
78695;SPS30;68030;51.980;5.646;2023-12-22T05:36:46;10.2;9.0;6.4;3.1;;;;2.0;57.0;
78695;SPS30;68030;51.980;5.646;2023-12-22T05:39:15;8.5;7.5;5.4;2.6;;;;2.0;57.0;
78695;SPS30;68030;51.980;5.646;2023-12-22T05:41:43;7.9;7.0;5.0;2.5;;;;2.0;58.0;
78695;SPS30;68030;51.980;5.646;2023-12-22T05:44:14;8.0;7.1;5.1;2.6;;;;2.0;58.0;
78695;SPS30;68030;51.980;5.646;2023-12-22T05:46:43;8.2;7.3;5.3;2.7;;;;2.0;58.0;
78695;SPS30;68030;51.980;5.646;2023-12-22T05:49:11;7.6;6.7;4.8;2.4;;;;2.0;58.0;
78695;SPS30;68030;51.980;5.646;2023-12-22T05:51:39;8.5;7.5;5.3;2.6;;;;2.0;62.0;
78695;SPS30;68030;51.980;5.646;2023-12-22T05:54:08;6.9;6.1;4.4;2.2;;;;2.0;75.0;
78695;SPS30;68030;51.980;5.646;2023-12-22T05:56:38;7.7;6.8;4.9;2.4;;;;2.0;77.0;
78695;SPS30;68030;51.980;5.646;2023-12-22T05:59:09;6.8;6.0;4.3;2.1;;;;2.0;79.0;
78695;SPS30;68030;51.980;5.646;2023-12-22T06:01:37;9.7;8.5;6.1;3.0;;;;2.0;81.0;
78695;SPS30;68030;51.980;5.646;2023-12-22T06:04:06;6.8;6.0;4.3;2.2;;;;2.0;98.0;
78695;SPS30;68030;51.980;5.646;2023-12-22T06:06:35;7.7;6.8;4.8;2.3;;;;2.0;103.0;
78695;SPS30;68030;51.980;5.646;2023-12-22T06:09:05;7.0;6.1;4.3;2.1;;;;2.0;104.0;
78695;SPS30;68030;51.980;5.646;2023-12-22T06:11:33;9.3;8.2;5.8;2.9;;;;2.0;108.0;
78695;SPS30;68030;51.980;5.646;2023-12-22T06:14:02;8.1;7.2;5.2;2.6;;;;2.0;129.0;
78695;SPS30;68030;51.980;5.646;2023-12-22T06:16:30;7.5;6.6;4.8;2.4;;;;2.0;133.0;
78695;SPS30;68030;51.980;5.646;2023-12-22T06:18:59;6.4;5.7;4.1;2.1;;;;2.0;148.0;
78695;SPS30;68030;51.980;5.646;2023-12-22T06:21:28;7.4;6.5;4.7;2.4;;;;1.0;137.0;
78695;SPS30;68030;51.980;5.646;2023-12-22T06:23:57;8.7;7.6;5.5;2.7;;;;1.0;138.0;
78695;SPS30;68030;51.980;5.646;2023-12-22T06:26:25;9.4;8.3;5.9;2.8;;;;1.0;200.0;
78695;SPS30;68030;51.980;5.646;2023-12-22T06:28:53;7.2;6.3;4.5;2.3;;;;1.0;175.0;
78695;SPS30;68030;51.980;5.646;2023-12-22T06:31:22;7.5;6.7;4.8;2.4;;;;1.0;182.0;
78695;SPS30;68030;51.980;5.646;2023-12-22T06:33:50;7.4;6.5;4.7;2.3;;;;1.0;174.0;
78695;SPS30;68030;51.980;5.646;2023-12-22T06:36:21;7.5;6.7;4.8;2.4;;;;1.0;173.0;
78695;SPS30;68030;51.980;5.646;2023-12-22T06:38:50;6.2;5.5;4.0;2.0;;;;1.0;172.0;
78695;SPS30;68030;51.980;5.646;2023-12-22T06:41:22;7.4;6.6;4.8;2.5;;;;1.0;177.0;
78695;SPS30;68030;51.980;5.646;2023-12-22T06:43:52;7.3;6.4;4.7;2.4;;;;1.0;185.0;
78695;SPS30;68030;51.980;5.646;2023-12-22T06:46:21;9.5;8.4;6.0;3.0;;;;1.0;187.0;
78695;SPS30;68030;51.980;5.646;2023-12-22T06:48:52;7.9;7.0;5.0;2.6;;;;1.0;188.0;
78695;SPS30;68030;51.980;5.646;2023-12-22T06:51:22;10.1;8.9;6.4;3.3;;;;1.0;199.0;
78695;SPS30;68030;51.980;5.646;2023-12-22T06:53:53;8.7;7.6;5.5;2.7;;;;1.0;197.0;
78695;SPS30;68030;51.980;5.646;2023-12-22T06:56:23;10.3;9.1;6.5;3.2;;;;1.0;200.0;
78695;SPS30;68030;51.980;5.646;2023-12-22T06:58:54;8.1;7.2;5.2;2.6;;;;1.0;250.0;
78695;SPS30;68030;51.980;5.646;2023-12-22T07:01:24;7.7;6.8;5.0;2.5;;;;1.0;236.0;
78695;SPS30;68030;51.980;5.646;2023-12-22T07:03:55;9.5;8.4;6.1;3.1;;;;1.0;245.0;
78695;SPS30;68030;51.980;5.646;2023-12-22T07:06:29;9.1;8.0;5.9;3.1;;;;1.0;234.0;
78695;SPS30;68030;51.980;5.646;2023-12-22T07:09:45;9.2;8.2;6.0;3.2;;;;1.0;247.0;
78695;SPS30;68030;51.980;5.646;2023-12-22T07:12:16;11.0;9.8;7.1;3.6;;;;1.0;301.0;
78695;SPS30;68030;51.980;5.646;2023-12-22T07:14:46;11.1;9.9;7.2;3.7;;;;1.0;283.0;
78695;SPS30;68030;51.980;5.646;2023-12-22T07:17:14;11.0;9.7;7.1;3.6;;;;1.0;275.0;
78695;SPS30;68030;51.980;5.646;2023-12-22T07:19:43;12.1;10.8;7.8;4.0;;;;1.0;268.0;
78695;SPS30;68030;51.980;5.646;2023-12-22T07:22:12;10.8;9.6;7.0;3.7;;;;1.0;271.0;
78695;SPS30;68030;51.980;5.646;2023-12-22T07:24:41;13.0;11.5;8.4;4.5;;;;1.0;280.0;
78695;SPS30;68030;51.980;5.646;2023-12-22T07:27:09;12.9;11.4;8.3;4.4;;;;1.0;275.0;
78695;SPS30;68030;51.980;5.646;2023-12-22T07:29:38;11.3;10.0;7.4;3.9;;;;1.0;255.0;
78695;SPS30;68030;51.980;5.646;2023-12-22T07:32:06;12.7;11.2;8.1;4.0;;;;1.0;249.0;
78695;SPS30;68030;51.980;5.646;2023-12-22T07:34:35;13.5;12.0;8.7;4.6;;;;1.0;267.0;
78695;SPS30;68030;51.980;5.646;2023-12-22T07:37:03;13.2;11.7;8.5;4.5;;;;1.0;272.0;
78695;SPS30;68030;51.980;5.646;2023-12-22T07:39:33;13.9;12.3;9.0;4.7;;;;1.0;267.0;
78695;SPS30;68030;51.980;5.646;2023-12-22T07:42:02;14.7;13.1;9.6;5.0;;;;1.0;262.0;
78695;SPS30;68030;51.980;5.646;2023-12-22T07:44:32;13.7;12.1;8.8;4.6;;;;1.0;246.0;
78695;SPS30;68030;51.980;5.646;2023-12-22T07:47:01;12.4;11.0;8.1;4.3;;;;1.0;243.0;
78695;SPS30;68030;51.980;5.646;2023-12-22T07:49:31;13.0;11.6;8.6;4.7;;;;1.0;242.0;
78695;SPS30;68030;51.980;5.646;2023-12-22T07:51:59;11.4;10.2;7.6;4.2;;;;1.0;263.0;
78695;SPS30;68030;51.980;5.646;2023-12-22T07:54:27;12.8;11.4;8.4;4.6;;;;1.0;286.0;
78695;SPS30;68030;51.980;5.646;2023-12-22T07:56:56;14.4;12.8;9.4;5.0;;;;1.0;295.0;
78695;SPS30;68030;51.980;5.646;2023-12-22T07:59:24;15.0;13.2;9.6;4.9;;;;1.0;284.0;
78695;SPS30;68030;51.980;5.646;2023-12-22T08:01:53;13.5;12.1;8.9;4.9;;;;1.0;270.0;
78695;SPS30;68030;51.980;5.646;2023-12-22T08:04:21;7.2;6.4;4.8;2.7;;;;1.0;233.0;
78695;SPS30;68030;51.980;5.646;2023-12-22T08:06:49;9.3;8.3;6.1;3.2;;;;1.0;201.0;
78695;SPS30;68030;51.980;5.646;2023-12-22T08:09:18;10.7;9.5;6.9;3.5;;;;1.0;206.0;
78695;SPS30;68030;51.980;5.646;2023-12-22T08:11:49;11.3;9.9;7.1;3.5;;;;1.0;191.0;
78695;SPS30;68030;51.980;5.646;2023-12-22T08:14:19;11.0;9.8;7.1;3.7;;;;1.0;190.0;
78695;SPS30;68030;51.980;5.646;2023-12-22T08:16:49;11.2;10.0;7.4;4.0;;;;1.0;240.0;
78695;SPS30;68030;51.980;5.646;2023-12-22T08:19:18;11.3;10.0;7.4;4.1;;;;1.0;233.0;
78695;SPS30;68030;51.980;5.646;2023-12-22T08:21:46;11.4;10.2;7.7;4.5;;;;1.0;264.0;
78695;SPS30;68030;51.980;5.646;2023-12-22T08:24:15;10.0;9.0;6.9;4.1;;;;1.0;312.0;
78695;SPS30;68030;51.980;5.646;2023-12-22T08:26:43;11.3;10.1;7.5;4.1;;;;1.0;297.0;
78695;SPS30;68030;51.980;5.646;2023-12-22T08:29:14;10.7;9.6;7.1;4.0;;;;1.0;278.0;
78695;SPS30;68030;51.980;5.646;2023-12-22T08:31:45;13.6;12.1;8.8;4.5;;;;1.0;273.0;
78695;SPS30;68030;51.980;5.646;2023-12-22T08:34:13;11.2;10.0;7.3;3.9;;;;1.0;269.0;
78695;SPS30;68030;51.980;5.646;2023-12-22T08:36:42;13.8;12.2;8.8;4.4;;;;1.0;269.0;
78695;SPS30;68030;51.980;5.646;2023-12-22T08:39:10;14.7;13.0;9.5;5.0;;;;1.0;299.0;
78695;SPS30;68030;51.980;5.646;2023-12-22T08:41:39;12.2;10.8;7.9;4.2;;;;1.0;291.0;
78695;SPS30;68030;51.980;5.646;2023-12-22T08:44:08;9.6;8.6;6.4;3.6;;;;1.0;288.0;
78695;SPS30;68030;51.980;5.646;2023-12-22T08:46:37;9.2;8.2;6.2;3.5;;;;1.0;253.0;
78695;SPS30;68030;51.980;5.646;2023-12-22T08:49:06;10.7;9.5;7.0;3.8;;;;1.0;243.0;
78695;SPS30;68030;51.980;5.646;2023-12-22T08:51:35;8.1;7.2;5.2;2.7;;;;1.0;228.0;
78695;SPS30;68030;51.980;5.646;2023-12-22T08:54:03;7.4;6.6;4.9;2.7;;;;1.0;235.0;
78695;SPS30;68030;51.980;5.646;2023-12-22T08:56:32;6.0;5.3;4.0;2.3;;;;1.0;215.0;
78695;SPS30;68030;51.980;5.646;2023-12-22T08:59:03;5.1;4.6;3.5;2.0;;;;1.0;210.0;
78695;SPS30;68030;51.980;5.646;2023-12-22T09:01:31;5.2;4.7;3.5;2.1;;;;1.0;198.0;
78695;SPS30;68030;51.980;5.646;2023-12-22T09:04:00;4.8;4.3;3.3;2.0;;;;1.0;207.0;
78695;SPS30;68030;51.980;5.646;2023-12-22T09:06:28;5.6;5.1;3.9;2.3;;;;1.0;212.0;
78695;SPS30;68030;51.980;5.646;2023-12-22T09:08:56;4.3;3.9;3.0;1.8;;;;1.0;202.0;
78695;SPS30;68030;51.980;5.646;2023-12-22T09:11:27;5.4;4.8;3.7;2.2;;;;1.0;198.0;
78695;SPS30;68030;51.980;5.646;2023-12-22T09:13:55;5.9;5.3;4.0;2.4;;;;1.0;191.0;
78695;SPS30;68030;51.980;5.646;2023-12-22T09:16:24;6.0;5.4;4.1;2.4;;;;1.0;229.0;
78695;SPS30;68030;51.980;5.646;2023-12-22T09:18:53;6.4;5.8;4.5;2.7;;;;1.0;227.0;
78695;SPS30;68030;51.980;5.646;2023-12-22T09:21:21;6.4;5.8;4.5;2.7;;;;1.0;223.0;
78695;SPS30;68030;51.980;5.646;2023-12-22T09:23:50;6.4;5.7;4.4;2.7;;;;1.0;223.0;
78695;SPS30;68030;51.980;5.646;2023-12-22T09:26:18;6.4;5.8;4.5;2.8;;;;1.0;266.0;
78695;SPS30;68030;51.980;5.646;2023-12-22T09:28:48;6.5;5.9;4.5;2.8;;;;1.0;254.0;
78695;SPS30;68030;51.980;5.646;2023-12-22T09:31:17;4.7;4.2;3.3;2.0;;;;1.0;237.0;
78695;SPS30;68030;51.980;5.646;2023-12-22T09:33:45;4.5;4.0;3.1;2.0;;;;1.0;190.0;
78695;SPS30;68030;51.980;5.646;2023-12-22T09:36:15;2.3;2.1;1.7;1.0;;;;1.0;161.0;
78695;SPS30;68030;51.980;5.646;2023-12-22T09:38:45;1.7;1.5;1.2;0.8;;;;1.0;128.0;
78695;SPS30;68030;51.980;5.646;2023-12-22T09:41:14;1.7;1.5;1.2;0.8;;;;1.0;132.0;
78695;SPS30;68030;51.980;5.646;2023-12-22T09:43:45;1.4;1.3;1.0;0.7;;;;1.0;114.0;
78695;SPS30;68030;51.980;5.646;2023-12-22T09:46:18;1.0;0.9;0.7;0.5;;;;1.0;103.0;
78695;SPS30;68030;51.980;5.646;2023-12-22T09:48:49;1.4;1.3;1.0;0.7;;;;1.0;94.0;
78695;SPS30;68030;51.980;5.646;2023-12-22T09:51:20;1.0;1.0;0.8;0.5;;;;1.0;85.0;
78695;SPS30;68030;51.980;5.646;2023-12-22T09:53:49;1.0;0.9;0.8;0.5;;;;1.0;83.0;
78695;SPS30;68030;51.980;5.646;2023-12-22T09:56:19;1.6;1.5;1.2;0.7;;;;1.0;91.0;
78695;SPS30;68030;51.980;5.646;2023-12-22T09:58:48;1.9;1.7;1.4;0.9;;;;1.0;96.0;
78695;SPS30;68030;51.980;5.646;2023-12-22T10:01:21;2.0;1.9;1.5;1.0;;;;1.0;99.0;
78695;SPS30;68030;51.980;5.646;2023-12-22T10:03:50;1.9;1.7;1.4;0.9;;;;1.0;99.0;
78695;SPS30;68030;51.980;5.646;2023-12-22T10:06:19;1.5;1.4;1.2;0.8;;;;1.0;98.0;
78695;SPS30;68030;51.980;5.646;2023-12-22T10:08:48;1.8;1.6;1.3;0.9;;;;1.0;113.0;
78695;SPS30;68030;51.980;5.646;2023-12-22T10:11:19;2.7;2.5;2.0;1.4;;;;1.0;143.0;
78695;SPS30;68030;51.980;5.646;2023-12-22T10:13:50;3.0;2.8;2.2;1.5;;;;1.0;157.0;
78695;SPS30;68030;51.980;5.646;2023-12-22T10:16:21;2.9;2.7;2.2;1.5;;;;1.0;168.0;
78695;SPS30;68030;51.980;5.646;2023-12-22T10:18:51;2.9;2.7;2.2;1.5;;;;1.0;160.0;
78695;SPS30;68030;51.980;5.646;2023-12-22T10:21:20;3.1;2.8;2.3;1.6;;;;1.0;162.0;
78695;SPS30;68030;51.980;5.646;2023-12-22T10:23:49;3.2;2.9;2.4;1.6;;;;1.0;161.0;
78695;SPS30;68030;51.980;5.646;2023-12-22T10:26:17;4.0;3.7;3.0;2.0;;;;1.0;164.0;
78695;SPS30;68030;51.980;5.646;2023-12-22T10:28:48;3.1;2.8;2.3;1.6;;;;1.0;172.0;
78695;SPS30;68030;51.980;5.646;2023-12-22T10:31:17;2.9;2.7;2.2;1.6;;;;1.0;197.0;
78695;SPS30;68030;51.980;5.646;2023-12-22T10:33:45;2.9;2.7;2.2;1.6;;;;1.0;185.0;
78695;SPS30;68030;51.980;5.646;2023-12-22T10:36:14;2.7;2.5;2.0;1.5;;;;1.0;182.0;
78695;SPS30;68030;51.980;5.646;2023-12-22T10:38:43;2.4;2.2;1.8;1.3;;;;1.0;177.0;
78695;SPS30;68030;51.980;5.646;2023-12-22T10:41:12;2.6;2.4;2.0;1.5;;;;1.0;174.0;
78695;SPS30;68030;51.980;5.646;2023-12-22T10:43:41;3.2;2.9;2.4;1.7;;;;1.0;176.0;
78695;SPS30;68030;51.980;5.646;2023-12-22T10:46:10;3.1;2.9;2.4;1.7;;;;1.0;184.0;
78695;SPS30;68030;51.980;5.646;2023-12-22T10:48:39;2.7;2.5;2.1;1.6;;;;1.0;181.0;
78695;SPS30;68030;51.980;5.646;2023-12-22T10:51:11;2.6;2.4;2.0;1.5;;;;1.0;172.0;
78695;SPS30;68030;51.980;5.646;2023-12-22T10:53:42;2.9;2.7;2.3;1.7;;;;1.0;175.0;
78695;SPS30;68030;51.980;5.646;2023-12-22T10:56:10;3.1;2.9;2.4;1.7;;;;1.0;181.0;
78695;SPS30;68030;51.980;5.646;2023-12-22T10:58:39;2.7;2.5;2.1;1.5;;;;1.0;179.0;
78695;SPS30;68030;51.980;5.646;2023-12-22T11:01:11;2.8;2.6;2.2;1.6;;;;1.0;170.0;
78695;SPS30;68030;51.980;5.646;2023-12-22T11:03:44;2.6;2.4;2.0;1.5;;;;1.0;161.0;
78695;SPS30;68030;51.980;5.646;2023-12-22T11:06:15;2.5;2.3;2.0;1.5;;;;1.0;169.0;
78695;SPS30;68030;51.980;5.646;2023-12-22T11:08:44;2.5;2.4;2.1;1.6;;;;1.0;197.0;
78695;SPS30;68030;51.980;5.646;2023-12-22T11:11:20;2.6;2.4;2.0;1.5;;;;1.0;211.0;
78695;SPS30;68030;51.980;5.646;2023-12-22T11:13:56;2.6;2.5;2.1;1.5;;;;1.0;202.0;
78695;SPS30;68030;51.980;5.646;2023-12-22T11:16:25;2.5;2.3;2.0;1.5;;;;1.0;194.0;
78695;SPS30;68030;51.980;5.646;2023-12-22T11:18:56;2.3;2.1;1.8;1.3;;;;1.0;178.0;
78695;SPS30;68030;51.980;5.646;2023-12-22T11:21:28;2.1;2.0;1.7;1.2;;;;1.0;176.0;
78695;SPS30;68030;51.980;5.646;2023-12-22T11:23:58;2.9;2.7;2.2;1.6;;;;1.0;164.0;
78695;SPS30;68030;51.980;5.646;2023-12-22T11:26:28;2.2;2.1;1.7;1.3;;;;1.0;161.0;
78695;SPS30;68030;51.980;5.646;2023-12-22T11:28:58;2.4;2.3;1.9;1.4;;;;1.0;164.0;
78695;SPS30;68030;51.980;5.646;2023-12-22T11:31:30;2.5;2.3;1.9;1.4;;;;1.0;160.0;
78695;SPS30;68030;51.980;5.646;2023-12-22T11:34:00;2.1;2.0;1.7;1.3;;;;1.0;162.0;
78695;SPS30;68030;51.980;5.646;2023-12-22T11:36:30;1.9;1.7;1.5;1.1;;;;1.0;160.0;
78695;SPS30;68030;51.980;5.646;2023-12-22T11:38:59;2.2;2.0;1.7;1.3;;;;1.0;162.0;
78695;SPS30;68030;51.980;5.646;2023-12-22T11:41:29;2.1;1.9;1.6;1.2;;;;1.0;155.0;
78695;SPS30;68030;51.980;5.646;2023-12-22T11:44:03;2.9;2.7;2.2;1.5;;;;1.0;147.0;
78695;SPS30;68030;51.980;5.646;2023-12-22T11:46:36;3.0;2.7;2.2;1.6;;;;1.0;150.0;
78695;SPS30;68030;51.980;5.646;2023-12-22T11:49:05;3.9;3.5;2.9;1.9;;;;1.0;154.0;
78695;SPS30;68030;51.980;5.646;2023-12-22T11:51:35;2.4;2.2;1.8;1.2;;;;1.0;158.0;
78695;SPS30;68030;51.980;5.646;2023-12-22T11:54:05;2.8;2.6;2.1;1.5;;;;1.0;163.0;
78695;SPS30;68030;51.980;5.646;2023-12-22T11:57:32;2.8;2.6;2.1;1.5;;;;1.0;158.0;
78695;SPS30;68030;51.980;5.646;2023-12-22T12:00:03;3.0;2.8;2.2;1.5;;;;1.0;155.0;
78695;SPS30;68030;51.980;5.646;2023-12-22T12:02:36;3.1;2.8;2.3;1.5;;;;1.0;147.0;
78695;SPS30;68030;51.980;5.646;2023-12-22T12:05:07;3.6;3.3;2.6;1.7;;;;1.0;136.0;
78695;SPS30;68030;51.980;5.646;2023-12-22T12:07:40;2.8;2.5;2.0;1.3;;;;1.0;139.0;
78695;SPS30;68030;51.980;5.646;2023-12-22T12:13:23;3.0;2.7;2.2;1.4;;;;1.0;168.0;
78695;SPS30;68030;51.980;5.646;2023-12-22T12:15:53;3.1;2.8;2.2;1.5;;;;1.0;161.0;
78695;SPS30;68030;51.980;5.646;2023-12-22T12:18:26;2.7;2.5;2.0;1.3;;;;1.0;159.0;
78695;SPS30;68030;51.980;5.646;2023-12-22T12:20:57;3.6;3.3;2.6;1.7;;;;1.0;193.0;
78695;SPS30;68030;51.980;5.646;2023-12-22T12:23:26;3.4;3.1;2.5;1.7;;;;1.0;176.0;